createdAt,value
2022-10-18T03:01:47.146Z,15.83
2022-10-18T03:04:14.540Z,19.83
2022-10-18T03:06:41.950Z,14.18
2022-10-18T03:09:09.927Z,11.35
2022-10-18T03:11:37.061Z,14.88
2022-10-18T03:14:04.128Z,15.27
2022-10-18T03:16:31.690Z,16.95
2022-10-18T03:18:58.914Z,13.57
2022-10-18T03:21:25.954Z,13.77
2022-10-18T03:23:53.026Z,12.90
2022-10-18T03:26:21.715Z,14.70
2022-10-18T03:28:48.895Z,21.85
2022-10-18T03:31:16.056Z,11.27
2022-10-18T03:33:43.355Z,15.43
2022-10-18T03:36:10.490Z,15.80
2022-10-18T03:38:37.581Z,14.30
2022-10-18T03:41:04.734Z,10.60
2022-10-18T03:43:32.041Z,8.93
2022-10-18T03:45:59.363Z,11.82
2022-10-18T03:48:26.449Z,13.68
2022-10-18T03:50:53.704Z,20.45
2022-10-18T03:53:20.958Z,17.83
2022-10-18T03:55:55.856Z,16.90
2022-10-18T03:58:24.013Z,15.75
2022-10-18T04:00:55.754Z,14.05
2022-10-18T04:03:23.651Z,18.13
2022-10-18T04:05:51.161Z,22.83
2022-10-18T04:08:21.119Z,16.85
2022-10-18T04:10:52.800Z,18.25
2022-10-18T04:13:19.885Z,27.88
2022-10-18T04:15:46.959Z,17.70
2022-10-18T04:18:14.129Z,25.33
2022-10-18T04:20:41.139Z,17.13
2022-10-18T04:23:08.329Z,21.48
2022-10-18T04:25:35.392Z,16.85
2022-10-18T04:28:02.513Z,14.95
2022-10-18T04:30:29.610Z,10.55
2022-10-18T04:32:57.005Z,13.52
2022-10-18T04:35:26.192Z,13.73
2022-10-18T04:37:53.295Z,18.35
2022-10-18T04:40:20.924Z,14.35
2022-10-18T04:42:48.100Z,9.70
2022-10-18T04:45:15.202Z,9.40
2022-10-18T04:47:42.259Z,12.85
2022-10-18T04:50:09.508Z,11.50
2022-10-18T04:52:36.614Z,7.55
2022-10-18T04:55:04.049Z,11.43
2022-10-18T04:57:31.402Z,11.88
2022-10-18T04:59:59.500Z,10.60
2022-10-18T05:02:26.800Z,14.80
2022-10-18T05:04:53.912Z,12.52
2022-10-18T05:07:21.074Z,17.55
2022-10-18T05:09:48.114Z,12.88
2022-10-18T05:12:15.190Z,12.38
2022-10-18T05:14:42.343Z,15.13
2022-10-18T05:17:09.471Z,14.50
2022-10-18T05:19:36.595Z,12.85
2022-10-18T05:22:03.628Z,16.13
2022-10-18T05:24:30.720Z,12.02
2022-10-18T05:26:58.602Z,23.30
2022-10-18T05:31:57.865Z,11.98
2022-10-18T05:34:27.449Z,9.90
2022-10-18T05:36:54.563Z,12.07
2022-10-18T05:39:21.725Z,16.95
2022-10-18T05:41:48.962Z,14.77
2022-10-18T05:44:16.179Z,12.32
2022-10-18T05:46:43.297Z,11.15
2022-10-18T05:49:14.055Z,18.58
2022-10-18T05:51:41.279Z,15.35
2022-10-18T05:54:09.650Z,25.38
2022-10-18T05:56:36.721Z,14.88
2022-10-18T05:59:12.247Z,13.55
2022-10-18T06:01:41.358Z,16.25
2022-10-18T06:04:10.351Z,17.33
2022-10-18T06:06:38.554Z,14.40
2022-10-18T06:09:07.955Z,8.15
2022-10-18T06:11:37.127Z,11.38
2022-10-18T06:14:05.199Z,17.77
2022-10-18T06:16:32.846Z,18.75
2022-10-18T06:19:00.272Z,17.10
2022-10-18T06:21:28.183Z,11.65
2022-10-18T06:23:58.123Z,18.27
2022-10-18T06:26:27.289Z,9.85
2022-10-18T06:28:54.479Z,15.48
2022-10-18T06:31:21.586Z,13.55
2022-10-18T06:33:49.402Z,16.88
2022-10-18T06:36:18.883Z,12.00
2022-10-18T06:38:46.276Z,22.50
2022-10-18T06:41:14.003Z,14.07
2022-10-18T06:43:41.268Z,11.13
2022-10-18T06:46:09.256Z,11.18
2022-10-18T06:48:37.069Z,12.10
2022-10-18T06:51:06.367Z,11.13
2022-10-18T06:53:43.669Z,12.10
2022-10-18T06:56:15.851Z,11.18
2022-10-18T06:58:43.013Z,9.45
2022-10-18T07:01:16.190Z,13.43
2022-10-18T07:06:13.817Z,11.77
2022-10-18T07:08:41.513Z,12.93
2022-10-18T07:11:13.954Z,15.68
2022-10-18T07:13:41.162Z,22.88
2022-10-18T07:16:14.114Z,17.75
2022-10-18T07:18:46.617Z,17.00
2022-10-18T07:21:18.542Z,19.63
2022-10-18T07:23:46.984Z,22.63
2022-10-18T07:26:26.127Z,29.38
2022-10-18T07:28:58.165Z,24.92
2022-10-18T07:31:25.618Z,22.80
2022-10-18T07:33:53.604Z,25.15
2022-10-18T07:36:22.310Z,15.98
2022-10-18T07:38:50.196Z,19.10
2022-10-18T07:41:17.334Z,17.42
2022-10-18T07:43:49.311Z,25.70
2022-10-18T07:46:16.606Z,18.50
2022-10-18T07:48:44.112Z,15.75
2022-10-18T07:51:11.980Z,25.77
2022-10-18T07:53:39.366Z,27.17
2022-10-18T07:56:11.734Z,30.95
2022-10-18T07:58:38.829Z,36.45
2022-10-18T08:01:07.857Z,30.13
2022-10-18T08:03:35.466Z,37.53
2022-10-18T08:06:04.002Z,28.85
2022-10-18T08:08:31.371Z,25.67
2022-10-18T08:11:15.003Z,25.67
2022-10-18T08:13:42.913Z,20.98
2022-10-18T08:16:15.726Z,20.58
2022-10-18T08:18:43.196Z,28.55
2022-10-18T08:21:12.178Z,23.77
2022-10-18T08:23:40.433Z,37.90
2022-10-18T08:26:10.201Z,25.38
2022-10-18T08:28:37.944Z,26.27
2022-10-18T08:31:12.034Z,30.65
2022-10-18T08:33:40.019Z,27.50
2022-10-18T08:36:09.170Z,29.10
2022-10-18T08:38:38.408Z,28.83
2022-10-18T08:41:33.315Z,34.78
2022-10-18T08:44:09.559Z,28.42
2022-10-18T08:46:39.289Z,33.85
2022-10-18T08:49:07.377Z,34.20
2022-10-18T08:51:48.863Z,36.53
2022-10-18T08:54:44.782Z,34.25
2022-10-18T08:57:18.353Z,24.75
2022-10-18T08:59:45.966Z,30.08
2022-10-18T09:02:31.645Z,29.80
2022-10-18T09:05:32.078Z,30.25
2022-10-18T09:08:18.506Z,34.47
2022-10-18T09:11:09.800Z,35.45
2022-10-18T09:13:59.075Z,36.75
2022-10-18T09:16:40.033Z,32.65
2022-10-18T09:19:12.512Z,26.33
2022-10-18T09:21:50.897Z,28.30
2022-10-18T09:24:37.388Z,23.77
2022-10-18T09:27:12.366Z,30.92
2022-10-18T09:30:09.241Z,22.85
2022-10-18T09:32:52.073Z,19.50
2022-10-18T09:35:24.858Z,32.40
2022-10-18T09:37:59.742Z,21.55
2022-10-18T09:40:30.508Z,21.23
2022-10-18T09:43:06.796Z,24.50
2022-10-18T09:45:40.695Z,24.30
2022-10-18T09:48:17.622Z,21.13
2022-10-18T09:50:55.165Z,20.23
2022-10-18T09:53:46.204Z,26.77
2022-10-18T09:56:20.452Z,14.15
2022-10-18T09:58:51.554Z,19.35
2022-10-18T10:01:25.399Z,18.70
2022-10-18T10:03:53.083Z,17.40
2022-10-18T10:06:25.015Z,21.30
2022-10-18T10:09:05.199Z,23.20
2022-10-18T10:11:38.896Z,18.50
2022-10-18T10:14:23.771Z,21.38
2022-10-18T10:17:03.485Z,28.17
2022-10-18T10:19:38.346Z,22.63
2022-10-18T10:22:14.393Z,13.77
2022-10-18T10:24:53.919Z,20.88
2022-10-18T10:27:34.092Z,17.15
2022-10-18T10:30:21.338Z,19.90
2022-10-18T10:32:52.068Z,15.63
2022-10-18T10:35:53.211Z,16.45
2022-10-18T10:38:28.668Z,21.38
2022-10-18T10:40:56.816Z,12.90
2022-10-18T10:43:39.219Z,16.45
2022-10-18T10:46:13.689Z,15.90
2022-10-18T10:48:46.793Z,18.45
2022-10-18T10:51:16.473Z,18.55
2022-10-18T10:53:53.146Z,19.65
2022-10-18T10:56:27.530Z,11.80
2022-10-18T10:58:58.343Z,18.08
2022-10-18T11:01:32.499Z,15.07
2022-10-18T11:04:02.970Z,17.70
2022-10-18T11:06:49.009Z,19.80
2022-10-18T11:09:26.894Z,12.60
2022-10-18T11:12:21.709Z,15.93
2022-10-18T11:15:00.060Z,15.05
2022-10-18T11:17:39.761Z,19.90
2022-10-18T11:20:12.778Z,11.35
2022-10-18T11:23:12.723Z,16.05
2022-10-18T11:26:06.096Z,13.88
2022-10-18T11:31:11.488Z,18.23
2022-10-18T11:34:10.612Z,15.57
2022-10-18T11:37:09.672Z,18.42
2022-10-18T11:40:14.770Z,21.08
2022-10-18T11:43:14.148Z,13.10
2022-10-18T11:46:12.592Z,18.45
2022-10-18T11:48:48.414Z,14.25
2022-10-18T11:51:56.311Z,14.50
2022-10-18T11:55:02.504Z,18.37
2022-10-18T11:57:56.884Z,16.83
2022-10-18T12:00:39.452Z,13.98
2022-10-18T12:03:15.624Z,13.45
2022-10-18T12:05:46.328Z,19.35
2022-10-18T12:08:17.638Z,17.77
2022-10-18T12:11:04.418Z,14.88
2022-10-18T12:13:54.079Z,14.75
2022-10-18T12:16:49.259Z,13.75
2022-10-18T12:19:23.725Z,14.77
2022-10-18T12:22:00.641Z,12.50
2022-10-18T12:24:30.560Z,22.90
2022-10-18T12:27:00.546Z,11.15
2022-10-18T12:29:30.731Z,14.73
2022-10-18T12:32:01.334Z,19.40
2022-10-18T12:34:53.322Z,13.52
2022-10-18T12:37:39.111Z,13.40
2022-10-18T12:40:22.092Z,12.38
2022-10-18T12:45:33.619Z,13.70
2022-10-18T12:48:08.873Z,11.30
2022-10-18T12:50:42.503Z,11.93
2022-10-18T12:53:16.494Z,11.65
2022-10-18T12:55:48.342Z,18.23
2022-10-18T12:58:20.412Z,18.30
2022-10-18T13:00:48.303Z,14.25
2022-10-18T13:03:18.803Z,15.38
2022-10-18T13:05:54.494Z,12.55
2022-10-18T13:08:34.657Z,19.88
2022-10-18T13:11:09.959Z,12.50
2022-10-18T13:13:56.444Z,15.32
2022-10-18T13:16:30.490Z,10.20
2022-10-18T13:19:04.747Z,12.80
2022-10-18T13:21:41.170Z,12.38
2022-10-18T13:24:33.353Z,12.93
2022-10-18T13:27:37.177Z,10.13
2022-10-18T13:30:38.528Z,13.35
2022-10-18T13:33:32.077Z,15.45
2022-10-18T13:36:22.648Z,11.23
2022-10-18T13:39:04.584Z,13.85
2022-10-18T13:41:56.517Z,16.02
2022-10-18T13:44:32.069Z,12.90
2022-10-18T13:46:59.132Z,16.65
2022-10-18T13:53:29.697Z,20.33
2022-10-18T13:56:08.845Z,19.15
2022-10-18T13:59:20.066Z,15.63
2022-10-18T14:01:53.441Z,12.50
2022-10-18T14:04:29.585Z,12.52
2022-10-18T14:07:02.617Z,10.32
2022-10-18T14:09:44.346Z,16.33
2022-10-18T14:12:38.783Z,17.35
2022-10-18T14:15:16.383Z,14.85
2022-10-18T14:17:52.932Z,10.70
2022-10-18T14:20:29.871Z,13.93
2022-10-18T14:23:23.468Z,13.45
2022-10-18T14:25:50.604Z,17.30
2022-10-18T14:28:31.306Z,20.30
2022-10-18T14:31:15.486Z,16.13
2022-10-18T14:33:57.055Z,13.95
2022-10-18T14:36:27.297Z,11.47
2022-10-18T14:39:01.731Z,15.05
2022-10-18T14:44:14.299Z,17.58
2022-10-18T14:47:02.445Z,15.00
2022-10-18T14:49:30.324Z,11.25
2022-10-18T14:51:59.491Z,14.65
2022-10-18T14:54:36.658Z,12.43
2022-10-18T14:57:07.517Z,17.73
2022-10-18T14:59:42.920Z,13.25
2022-10-18T15:02:16.394Z,14.20
2022-10-18T15:04:55.537Z,13.68
2022-10-18T15:07:23.290Z,17.00
2022-10-18T15:09:50.970Z,12.45
2022-10-18T15:12:18.942Z,12.40
2022-10-18T15:14:47.059Z,13.93
2022-10-18T15:17:24.797Z,11.93
2022-10-18T15:20:20.322Z,13.27
2022-10-18T15:22:50.040Z,13.90
2022-10-18T15:25:36.033Z,16.02
2022-10-18T15:28:03.144Z,15.48
2022-10-18T15:30:39.286Z,17.92
2022-10-18T15:33:11.292Z,20.92
2022-10-18T15:35:39.774Z,15.23
2022-10-18T15:38:25.482Z,13.60
2022-10-18T15:40:53.754Z,14.45
2022-10-18T15:43:24.016Z,12.90
2022-10-18T15:46:06.904Z,8.65
2022-10-18T15:48:36.054Z,14.57
2022-10-18T15:51:06.702Z,12.43
2022-10-18T15:53:46.114Z,11.65
2022-10-18T15:56:40.411Z,10.48
2022-10-18T15:59:26.648Z,12.52
2022-10-18T16:01:56.148Z,17.77
2022-10-18T16:04:31.620Z,16.85
2022-10-18T16:07:00.224Z,12.95
2022-10-18T16:09:29.141Z,17.52
2022-10-18T16:11:58.445Z,14.60
2022-10-18T16:14:26.790Z,13.82
2022-10-18T16:17:02.171Z,13.63
2022-10-18T16:19:29.833Z,17.92
2022-10-18T16:21:57.948Z,21.00
2022-10-18T16:24:27.328Z,14.00
2022-10-18T16:26:54.451Z,10.88
2022-10-18T16:29:28.848Z,16.25
2022-10-18T16:31:58.430Z,13.48
2022-10-18T16:34:29.691Z,13.77
2022-10-18T16:36:56.757Z,12.48
2022-10-18T16:39:24.102Z,11.10
2022-10-18T16:41:51.795Z,14.77
2022-10-18T16:44:19.418Z,17.02
2022-10-18T16:46:49.908Z,16.52
2022-10-18T16:49:24.133Z,15.40
2022-10-18T16:51:52.989Z,13.32
2022-10-18T16:54:20.100Z,16.25
2022-10-18T16:56:48.139Z,12.32
2022-10-18T16:59:29.060Z,12.57
2022-10-18T17:01:56.435Z,12.00
2022-10-18T17:04:23.584Z,11.90
2022-10-18T17:06:52.368Z,17.92
2022-10-18T17:09:19.410Z,12.85
2022-10-18T17:11:46.435Z,10.98
2022-10-18T17:14:13.480Z,19.17
2022-10-18T17:16:40.514Z,11.73
2022-10-18T17:19:10.762Z,12.70
2022-10-18T17:21:37.990Z,11.45
2022-10-18T17:24:06.349Z,18.48
2022-10-18T17:26:34.133Z,11.73
2022-10-18T17:29:05.257Z,9.73
2022-10-18T17:31:32.995Z,11.32
2022-10-18T17:34:02.114Z,10.80
2022-10-18T17:36:31.251Z,17.08
2022-10-18T17:38:58.961Z,15.55
2022-10-18T17:41:26.375Z,14.77
2022-10-18T17:43:53.476Z,16.10
2022-10-18T17:46:20.742Z,10.32
2022-10-18T17:48:47.930Z,18.92
2022-10-18T17:51:17.308Z,11.70
2022-10-18T17:53:46.884Z,8.70
2022-10-18T17:56:15.685Z,9.30
2022-10-18T17:58:48.268Z,16.25
2022-10-18T18:01:21.889Z,11.07
2022-10-18T18:03:49.490Z,9.80
2022-10-18T18:06:19.415Z,12.27
2022-10-18T18:08:48.188Z,10.70
2022-10-18T18:11:16.218Z,10.55
2022-10-18T18:13:43.491Z,9.35
2022-10-18T18:16:20.059Z,12.95
2022-10-18T18:18:53.553Z,15.77
2022-10-18T18:21:21.473Z,11.48
2022-10-18T18:23:49.753Z,14.43
2022-10-18T18:26:18.369Z,12.55
2022-10-18T18:28:45.672Z,9.60
2022-10-18T18:31:24.889Z,16.33
2022-10-18T18:33:54.348Z,14.05
2022-10-18T18:36:22.260Z,16.77
2022-10-18T18:38:55.448Z,16.00
2022-10-18T18:41:26.367Z,15.30
2022-10-18T18:43:55.963Z,17.00
2022-10-18T18:46:24.300Z,12.35
2022-10-18T18:48:51.535Z,16.23
2022-10-18T18:51:21.113Z,12.95
2022-10-18T18:53:49.088Z,19.48
2022-10-18T18:56:18.962Z,16.23
2022-10-18T18:58:46.655Z,13.20
2022-10-18T19:01:19.761Z,14.65
2022-10-18T19:03:49.484Z,13.38
2022-10-18T19:06:20.226Z,11.30
2022-10-18T19:08:48.130Z,14.63
2022-10-18T19:11:21.482Z,13.30
2022-10-18T19:13:49.923Z,15.43
2022-10-18T19:16:26.164Z,14.27
2022-10-18T19:19:08.280Z,15.93
2022-10-18T19:21:38.134Z,13.55
2022-10-18T19:24:06.136Z,15.82
2022-10-18T19:26:37.386Z,16.38
2022-10-18T19:29:11.125Z,14.50
2022-10-18T19:31:39.312Z,13.20
2022-10-18T19:34:08.854Z,17.42
2022-10-18T19:36:36.635Z,10.15
2022-10-18T19:39:04.635Z,14.75
2022-10-18T19:41:31.915Z,21.55
2022-10-18T19:43:59.037Z,12.73
2022-10-18T19:46:26.639Z,18.35
2022-10-18T19:48:54.462Z,10.57
2022-10-18T19:51:22.957Z,14.10
2022-10-18T19:53:52.904Z,13.20
2022-10-18T19:56:23.399Z,15.57
2022-10-18T19:58:51.167Z,16.40
2022-10-18T20:01:18.997Z,18.05
2022-10-18T20:03:50.124Z,14.93
2022-10-18T20:06:17.541Z,16.00
2022-10-18T20:08:44.840Z,13.27
2022-10-18T20:11:15.541Z,13.48
2022-10-18T20:13:42.720Z,15.57
2022-10-18T20:16:11.275Z,12.65
2022-10-18T20:18:38.934Z,15.80
2022-10-18T20:21:07.559Z,22.17
2022-10-18T20:23:39.522Z,19.75
2022-10-18T20:26:17.985Z,18.63
2022-10-18T20:28:49.409Z,17.15
2022-10-18T20:31:18.083Z,17.63
2022-10-18T20:33:47.057Z,15.52
2022-10-18T20:36:16.443Z,19.63
2022-10-18T20:38:45.475Z,17.75
2022-10-18T20:41:15.120Z,15.27
2022-10-18T20:43:43.323Z,22.48
2022-10-18T20:46:10.994Z,23.08
2022-10-18T20:48:39.110Z,18.08
2022-10-18T20:51:09.467Z,22.92
2022-10-18T20:53:37.528Z,20.55
2022-10-18T20:56:07.948Z,18.63
2022-10-18T20:58:36.993Z,23.25
2022-10-18T21:01:11.905Z,16.23
2022-10-18T21:03:41.834Z,15.77
2022-10-18T21:06:13.904Z,16.58
2022-10-18T21:08:41.719Z,11.48
2022-10-18T21:11:10.441Z,19.80
2022-10-18T21:13:38.195Z,14.07
2022-10-18T21:16:05.994Z,14.77
2022-10-18T21:18:35.147Z,16.98
2022-10-18T21:21:28.668Z,19.52
2022-10-18T21:26:25.349Z,21.95
2022-10-18T21:28:54.619Z,14.18
2022-10-18T21:31:24.028Z,22.20
2022-10-18T21:34:03.237Z,18.92
2022-10-18T21:36:32.371Z,17.02
2022-10-18T21:38:59.458Z,14.07
2022-10-18T21:41:26.820Z,16.00
2022-10-18T21:43:55.348Z,16.88
2022-10-18T21:46:24.017Z,13.80
2022-10-18T21:48:53.172Z,15.70
2022-10-18T21:51:22.533Z,18.25
2022-10-18T21:53:51.697Z,12.93
2022-10-18T21:56:26.211Z,13.95
2022-10-18T21:58:53.527Z,17.05
2022-10-18T22:01:22.176Z,17.15
2022-10-18T22:03:51.768Z,18.73
2022-10-18T22:06:19.679Z,12.82
2022-10-18T22:08:51.724Z,13.85
2022-10-18T22:11:21.732Z,17.95
2022-10-18T22:13:52.496Z,27.95
2022-10-18T22:16:19.867Z,19.25
2022-10-18T22:18:48.588Z,14.95
2022-10-18T22:21:18.369Z,17.25
2022-10-18T22:23:48.059Z,19.23
2022-10-18T22:26:22.561Z,14.18
2022-10-18T22:28:56.398Z,19.67
2022-10-18T22:31:27.126Z,15.13
2022-10-18T22:33:58.782Z,20.00
2022-10-18T22:36:26.513Z,17.80
2022-10-18T22:38:53.786Z,12.52
2022-10-18T22:41:20.847Z,21.35
2022-10-18T22:43:49.988Z,16.48
2022-10-18T22:46:17.770Z,18.52
2022-10-18T22:48:45.330Z,19.25
2022-10-18T22:51:12.734Z,12.23
2022-10-18T22:53:40.579Z,21.23
2022-10-18T22:56:10.110Z,24.35
2022-10-18T22:58:37.167Z,22.92
